deformed-offering
Saratoga-Weather Station Historical Data
 
Daily Summary for June 12, 2024 Units:  English    Metric   Both
Daily Weekly Monthly Yearly
  Current: High: Low: Average:
Temperature: 80 °F 85.1 °F 60.2 °F 71.5 °F
Dew Point: 55.9 °F 58 °F 53.4 °F 56.2 °F
Humidity: 43.5% 86% 34.9% 62%
Wind Speed: 1.9mph 8.9mph 0mph 2.1mph
Wind Gust: 7mph 20mph - -
WindSE - - ESE
Pressure: 29.83 in 29.86 in 29.78 in -
Precipitation: 0.00 in      
 
 
Tabular Data for June 12, 2024
Time Temperature Dew Point Pressure Wind Wind Speed Wind Gust Humidity Rainfall Rate (Hourly) solar
00:09 69.4 °F 57 °F 29.79 in NE 0.1 mph 1.2 mph 64.7% 0.00 in 0 W/m2
00:14 69.3 °F 57 °F 29.79 in NNE 0.6 mph 2.3 mph 65% 0.00 in 0 W/m2
00:19 69.3 °F 57 °F 29.79 in NNE 0.3 mph 2 mph 65% 0.00 in 0 W/m2
00:24 69.2 °F 57.3 °F 29.79 in Calm   1 mph 65.9% 0.00 in 0 W/m2
00:29 69 °F 57.7 °F 29.79 in Calm     67.2% 0.00 in 0 W/m2
00:34 68.7 °F 57.7 °F 29.79 in Calm     68% 0.00 in 0 W/m2
00:39 68.5 °F 57.8 °F 29.79 in NNE 0.1 mph 1.2 mph 68.9% 0.00 in 0 W/m2
00:44 68.3 °F 57.7 °F 29.79 in Calm   1 mph 69% 0.00 in 0 W/m2
00:49 68.1 °F 57.8 °F 29.79 in Calm     69.7% 0.00 in 0 W/m2
00:54 67.9 °F 57.8 °F 29.79 in Calm     70% 0.00 in 0 W/m2
00:59 67.7 °F 57.9 °F 29.79 in Calm     70.9% 0.00 in 0 W/m2
01:04 67.5 °F 57.8 °F 29.79 in Calm     71% 0.00 in 0 W/m2
01:09 67.3 °F 58 °F 29.79 in Calm     72% 0.00 in 0 W/m2
01:14 67.1 °F 57.8 °F 29.79 in Calm   1.2 mph 72.1% 0.00 in 0 W/m2
01:19 66.9 °F 58 °F 29.79 in NNE 0.1 mph 1.2 mph 73% 0.00 in 0 W/m2
01:24 66.8 °F 57.9 °F 29.79 in NNE 0.1 mph 1.2 mph 73% 0.00 in 0 W/m2
01:29 66.7 °F 57.8 °F 29.79 in Calm   1 mph 73% 0.00 in 0 W/m2
01:34 66.5 °F 57.9 °F 29.79 in Calm     73.9% 0.00 in 0 W/m2
01:39 66.2 °F 57.8 °F 29.79 in Calm     74.2% 0.00 in 0 W/m2
01:44 66 °F 57.8 °F 29.79 in Calm     75% 0.00 in 0 W/m2
01:49 65.9 °F 57.7 °F 29.79 in Calm     75% 0.00 in 0 W/m2
01:54 65.6 °F 57.6 °F 29.79 in Calm     75.4% 0.00 in 0 W/m2
01:59 65.5 °F 57.7 °F 29.79 in Calm     76% 0.00 in 0 W/m2
02:04 65.3 °F 57.5 °F 29.79 in Calm     76% 0.00 in 0 W/m2
02:09 65.2 °F 57.4 °F 29.79 in Calm     76% 0.00 in 0 W/m2
02:14 65.2 °F 57.4 °F 29.79 in Calm     76.2% 0.00 in 0 W/m2
02:19 65 °F 57.6 °F 29.79 in Calm     77% 0.00 in 0 W/m2
02:24 64.8 °F 57.4 °F 29.79 in Calm     77% 0.00 in 0 W/m2
02:29 64.8 °F 57.5 °F 29.79 in Calm     77.4% 0.00 in 0 W/m2
02:34 64.6 °F 57.6 °F 29.79 in Calm     78% 0.00 in 0 W/m2
02:39 64.5 °F 57.5 °F 29.79 in Calm     78% 0.00 in 0 W/m2
02:44 64.3 °F 57.3 °F 29.79 in Calm     78% 0.00 in 0 W/m2
02:49 64.3 °F 57.3 °F 29.79 in Calm     78% 0.00 in 0 W/m2
02:54 64.2 °F 57.3 °F 29.79 in Calm     78.4% 0.00 in 0 W/m2
02:59 64.1 °F 57.4 °F 29.79 in Calm     79% 0.00 in 0 W/m2
03:04 64 °F 57.4 °F 29.79 in Calm     79% 0.00 in 0 W/m2
03:09 63.9 °F 57.3 °F 29.79 in Calm     79.1% 0.00 in 0 W/m2
03:14 63.8 °F 57.5 °F 29.79 in Calm     80% 0.00 in 0 W/m2
03:19 63.6 °F 57.3 °F 29.79 in Calm     80% 0.00 in 0 W/m2
03:24 63.5 °F 57.2 °F 29.78 in Calm     80% 0.00 in 0 W/m2
03:29 63.4 °F 57.1 °F 29.79 in Calm     80% 0.00 in 0 W/m2
03:34 63.3 °F 57 °F 29.78 in Calm     80% 0.00 in 0 W/m2
03:39 63.2 °F 56.9 °F 29.78 in Calm     80% 0.00 in 0 W/m2
03:44 63.1 °F 56.8 °F 29.78 in Calm     80% 0.00 in 0 W/m2
03:49 63 °F 56.7 °F 29.78 in Calm     80% 0.00 in 0 W/m2
03:54 62.9 °F 56.6 °F 29.78 in Calm     80% 0.00 in 0 W/m2
03:59 62.7 °F 56.4 °F 29.78 in Calm     80% 0.00 in 0 W/m2
04:04 62.6 °F 56.3 °F 29.78 in Calm     80% 0.00 in 0 W/m2
04:09 62.5 °F 56.2 °F 29.78 in Calm     80% 0.00 in 0 W/m2
04:14 62.4 °F 56.1 °F 29.79 in Calm     80% 0.00 in 0 W/m2
04:19 62.3 °F 56 °F 29.79 in Calm     80% 0.00 in 0 W/m2
04:24 62.3 °F 56.3 °F 29.78 in Calm     80.7% 0.00 in 0 W/m2
04:29 62.1 °F 56.2 °F 29.78 in Calm     81% 0.00 in 0 W/m2
04:34 62.1 °F 56.2 °F 29.79 in Calm     81.1% 0.00 in 0 W/m2
04:39 62 °F 56.4 °F 29.79 in Calm     82% 0.00 in 0 W/m2
04:44 62 °F 56.4 °F 29.79 in Calm     82% 0.00 in 0 W/m2
04:49 61.8 °F 56.2 °F 29.79 in Calm     82% 0.00 in 0 W/m2
04:54 61.8 °F 56.2 °F 29.79 in Calm     82% 0.00 in 0 W/m2
04:59 61.6 °F 56 °F 29.79 in Calm     82% 0.00 in 0 W/m2
05:04 61.6 °F 56.3 °F 29.79 in Calm     82.9% 0.00 in 0 W/m2
05:09 61.5 °F 56.3 °F 29.79 in Calm     83% 0.00 in 0 W/m2
05:14 61.3 °F 56.1 °F 29.79 in Calm     83% 0.00 in 0 W/m2
05:19 61.3 °F 56.1 °F 29.79 in Calm     83% 0.00 in 0 W/m2
05:24 61.2 °F 56 °F 29.79 in Calm     83% 0.00 in 0 W/m2
05:29 61.1 °F 55.9 °F 29.79 in Calm     83% 0.00 in 0 W/m2
05:34 61 °F 55.9 °F 29.80 in Calm     83.2% 0.00 in 0 W/m2
05:39 60.9 °F 56 °F 29.80 in Calm     84% 0.00 in 0 W/m2
05:44 60.8 °F 55.9 °F 29.80 in Calm     84% 0.00 in 0 W/m2
05:49 60.7 °F 55.8 °F 29.80 in Calm     84% 0.00 in 0 W/m2
05:54 60.5 °F 55.6 °F 29.80 in Calm     84% 0.00 in 5 W/m2
05:59 60.5 °F 55.6 °F 29.81 in Calm     84% 0.00 in 7 W/m2
06:04 60.4 °F 55.5 °F 29.81 in Calm     84% 0.00 in 16 W/m2
06:09 60.3 °F 55.4 °F 29.81 in Calm     84% 0.00 in 28 W/m2
06:14 60.3 °F 55.6 °F 29.81 in Calm     84.6% 0.00 in 37 W/m2
06:19 60.2 °F 55.7 °F 29.81 in Calm     85% 0.00 in 48 W/m2
06:24 60.2 °F 55.7 °F 29.81 in Calm     85% 0.00 in 70 W/m2
06:29 60.3 °F 55.8 °F 29.81 in Calm     85% 0.00 in 84 W/m2
06:34 60.4 °F 56.1 °F 29.82 in Calm     85.7% 0.00 in 99 W/m2
06:39 60.5 °F 56.3 °F 29.82 in Calm     86% 0.00 in 111 W/m2
06:44 60.6 °F 56.4 °F 29.82 in Calm     86% 0.00 in 125 W/m2
06:49 60.7 °F 56.5 °F 29.82 in Calm     86% 0.00 in 139 W/m2
06:54 60.9 °F 56.7 °F 29.82 in Calm     86% 0.00 in 158 W/m2
06:59 61.1 °F 56.8 °F 29.83 in Calm     85.8% 0.00 in 176 W/m2
07:04 61.3 °F 56.8 °F 29.83 in Calm     85% 0.00 in 192 W/m2
07:09 61.5 °F 56.7 °F 29.83 in Calm     84.2% 0.00 in 206 W/m2
07:14 62 °F 56.2 °F 29.83 in Calm     81.5% 0.00 in 220 W/m2
07:19 62.3 °F 55.9 °F 29.83 in Calm     79.6% 0.00 in 236 W/m2
07:24 62.6 °F 55.4 °F 29.83 in Calm     77.3% 0.00 in 250 W/m2
07:29 63 °F 55.5 °F 29.84 in Calm     76.5% 0.00 in 266 W/m2
07:34 63.1 °F 55.2 °F 29.84 in Calm   2 mph 75.4% 0.00 in 280 W/m2
07:39 63.3 °F 55.5 °F 29.84 in ENE 1.1 mph 3.5 mph 75.8% 0.00 in 294 W/m2
07:44 63.7 °F 55.6 °F 29.84 in East 1.4 mph 3.5 mph 75% 0.00 in 310 W/m2
07:49 64 °F 55.6 °F 29.84 in ENE 2.6 mph 6 mph 74.1% 0.00 in 324 W/m2
07:54 64.3 °F 55.7 °F 29.84 in East 1.9 mph 6 mph 73.6% 0.00 in 338 W/m2
07:59 64.6 °F 55.8 °F 29.84 in ENE 1.9 mph 6 mph 73% 0.00 in 350 W/m2
08:04 64.9 °F 55.8 °F 29.84 in ENE 2.1 mph 6 mph 72.6% 0.00 in 368 W/m2
08:09 65 °F 55.8 °F 29.84 in NE 2.2 mph 6 mph 72% 0.00 in 380 W/m2
08:14 65.3 °F 55.8 °F 29.84 in ENE 2 mph 5 mph 71.5% 0.00 in 396 W/m2
08:19 65.3 °F 55.7 °F 29.84 in NE 1.8 mph 5 mph 71% 0.00 in 410 W/m2
08:24 65.5 °F 55.8 °F 29.84 in NE 1.2 mph 4 mph 71% 0.00 in 424 W/m2
08:29 65.7 °F 55.6 °F 29.84 in ENE 1.7 mph 5 mph 70.2% 0.00 in 436 W/m2
08:34 65.9 °F 55.8 °F 29.85 in East 1.9 mph 6 mph 70% 0.00 in 454 W/m2
08:39 66.1 °F 55.9 °F 29.85 in ENE 2 mph 6 mph 69.7% 0.00 in 466 W/m2
08:44 66.3 °F 56.1 °F 29.85 in NE 1.9 mph 5 mph 69.6% 0.00 in 484 W/m2
08:49 66.4 °F 55.9 °F 29.85 in NNE 1.3 mph 6 mph 69% 0.00 in 496 W/m2
08:54 66.6 °F 55.8 °F 29.85 in NNE 2.3 mph 6 mph 68.4% 0.00 in 510 W/m2
08:59 66.7 °F 55.8 °F 29.85 in East 1.1 mph 6 mph 68.2% 0.00 in 524 W/m2
09:04 66.9 °F 56 °F 29.85 in NE 1.5 mph 3.5 mph 68% 0.00 in 540 W/m2
09:09 67.1 °F 56.2 °F 29.85 in East 2.5 mph 6 mph 68% 0.00 in 554 W/m2
09:14 67.5 °F 56.2 °F 29.86 in ENE 3 mph 7 mph 67.3% 0.00 in 568 W/m2
09:19 67.8 °F 56.3 °F 29.86 in East 1.9 mph 7 mph 66.7% 0.00 in 582 W/m2
09:24 68 °F 56.6 °F 29.86 in ENE 1.3 mph 7 mph 66.9% 0.00 in 596 W/m2
09:29 68.2 °F 56.3 °F 29.86 in WNW 1.1 mph 3.5 mph 65.6% 0.00 in 607 W/m2
09:34 68.5 °F 56.3 °F 29.86 in SW 1 mph 3.5 mph 65% 0.00 in 621 W/m2
09:39 68.7 °F 56.7 °F 29.86 in SE 1.1 mph 6 mph 65.4% 0.00 in 633 W/m2
09:44 69 °F 56.9 °F 29.85 in NE 2.3 mph 6 mph 65.5% 0.00 in 648 W/m2
09:49 69.2 °F 56.6 °F 29.85 in NNW 2 mph 6 mph 64.2% 0.00 in 656 W/m2
09:54 69.5 °F 57.1 °F 29.85 in East 2.3 mph 6.9 mph 64.8% 0.00 in 674 W/m2
09:59 69.8 °F 56.9 °F 29.85 in NE 4.7 mph 8.1 mph 63.6% 0.00 in 683 W/m2
10:04 70.1 °F 56.9 °F 29.86 in East 3.6 mph 8 mph 63% 0.00 in 690 W/m2
10:09 70.5 °F 57 °F 29.86 in East 2.9 mph 7 mph 62.5% 0.00 in 704 W/m2
10:14 70.9 °F 56.8 °F 29.86 in ENE 3.6 mph 11.5 mph 61% 0.00 in 716 W/m2
10:19 71.3 °F 57.2 °F 29.86 in ESE 2.1 mph 12 mph 61% 0.00 in 727 W/m2
10:24 71.6 °F 57.3 °F 29.86 in East 3.6 mph 8.1 mph 60.8% 0.00 in 735 W/m2
10:29 72 °F 57.4 °F 29.86 in NE 2.6 mph 8.1 mph 60.1% 0.00 in 744 W/m2
10:34 72.1 °F 57.2 °F 29.86 in NE 2.9 mph 8.1 mph 59.3% 0.00 in 757 W/m2
10:39 72.3 °F 57.2 °F 29.86 in ENE 1.2 mph 8 mph 59% 0.00 in 764 W/m2
10:44 72.7 °F 57.8 °F 29.86 in SE 1.5 mph 5 mph 59.5% 0.00 in 774 W/m2
10:49 73.1 °F 57.8 °F 29.86 in NE 2 mph 6 mph 58.7% 0.00 in 781 W/m2
10:54 73.5 °F 57.4 °F 29.86 in WNW 1.6 mph 6 mph 57.2% 0.00 in 794 W/m2
10:59 73.8 °F 57.1 °F 29.86 in NNE 1.6 mph 6 mph 55.9% 0.00 in 799 W/m2
11:04 74.2 °F 57.8 °F 29.86 in East 2 mph 5 mph 56.5% 0.00 in 809 W/m2
11:09 74.6 °F 57.8 °F 29.86 in ENE 2.8 mph 7 mph 55.9% 0.00 in 818 W/m2
11:14 75 °F 57.4 °F 29.86 in East 4.4 mph 9.2 mph 54.4% 0.00 in 823 W/m2
11:19 75.5 °F 57.1 °F 29.86 in East 5.6 mph 11.5 mph 52.8% 0.00 in 829 W/m2
11:24 76 °F 57.2 °F 29.86 in ENE 3.7 mph 12 mph 52% 0.00 in 838 W/m2
11:29 76.5 °F 57.2 °F 29.85 in East 4.2 mph 10 mph 51.4% 0.00 in 846 W/m2
11:34 77 °F 57.1 °F 29.85 in ENE 4.5 mph 11.5 mph 50.3% 0.00 in 850 W/m2
11:39 77.5 °F 57.2 °F 29.85 in East 4.8 mph 12 mph 49.7% 0.00 in 853 W/m2
11:44 78.1 °F 56.8 °F 29.85 in East 6.7 mph 12 mph 48.1% 0.00 in 857 W/m2
11:49 78.6 °F 56.8 °F 29.85 in East 5.1 mph 12 mph 47.2% 0.00 in 864 W/m2
11:54 79 °F 56.9 °F 29.85 in ESE 5.1 mph 12 mph 46.7% 0.00 in 867 W/m2
11:59 79.5 °F 56.4 °F 29.85 in ESE 6.7 mph 12 mph 45.2% 0.00 in 871 W/m2
12:04 79.7 °F 56.3 °F 29.86 in ESE 6.3 mph 13 mph 44.7% 0.00 in 874 W/m2
12:09 80 °F 56.1 °F 29.86 in ESE 5.8 mph 14 mph 44% 0.00 in 878 W/m2
12:14 80.3 °F 55.7 °F 29.86 in East 6 mph 14 mph 42.9% 0.00 in 880 W/m2
12:19 80.6 °F 55.8 °F 29.86 in ESE 5.9 mph 12.7 mph 42.7% 0.00 in 883 W/m2
12:24 80.8 °F 55.9 °F 29.85 in East 6.1 mph 16.1 mph 42.5% 0.00 in 889 W/m2
12:29 80.9 °F 55.8 °F 29.85 in East 8.9 mph 17 mph 42.1% 0.00 in 892 W/m2
12:34 81.1 °F 55.5 °F 29.85 in ESE 7.8 mph 17.3 mph 41.5% 0.00 in 896 W/m2
12:39 81.1 °F 55.5 °F 29.85 in East 6.9 mph 16 mph 41.5% 0.00 in 897 W/m2
12:44 81.1 °F 55.2 °F 29.85 in ESE 6.1 mph 16.1 mph 41% 0.00 in 897 W/m2
12:49 81.2 °F 55.5 °F 29.85 in ESE 7.9 mph 17.3 mph 41.5% 0.00 in 897 W/m2
12:54 81.2 °F 54.7 °F 29.86 in ESE 7.7 mph 19.6 mph 40.2% 0.00 in 899 W/m2
12:59 81.1 °F 55.3 °F 29.86 in ESE 6.8 mph 20 mph 41.1% 0.00 in 899 W/m2
13:04 81.1 °F 55.5 °F 29.86 in ESE 5.2 mph 16 mph 41.5% 0.00 in 899 W/m2
13:09 81.2 °F 55.9 °F 29.85 in ESE 5.8 mph 14 mph 42.1% 0.00 in 901 W/m2
13:14 81.3 °F 56 °F 29.85 in ESE 5.1 mph 14 mph 41.9% 0.00 in 897 W/m2
13:19 81.4 °F 55.9 °F 29.85 in ESE 5.7 mph 15 mph 41.7% 0.00 in 897 W/m2
13:24 81.6 °F 55.9 °F 29.85 in ESE 6.9 mph 15 mph 41.4% 0.00 in 901 W/m2
13:29 81.5 °F 55.5 °F 29.85 in East 6.1 mph 14 mph 41% 0.00 in 897 W/m2
13:34 81.6 °F 56 °F 29.85 in East 6.3 mph 14 mph 41.6% 0.00 in 896 W/m2
13:39 81.8 °F 56.1 °F 29.85 in East 5.9 mph 13 mph 41.5% 0.00 in 897 W/m2
13:44 81.8 °F 56.2 °F 29.84 in East 6.8 mph 12 mph 41.6% 0.00 in 892 W/m2
13:49 81.8 °F 56.2 °F 29.84 in East 5.5 mph 14 mph 41.6% 0.00 in 890 W/m2
13:54 82.1 °F 54.9 °F 29.84 in ESE 6.8 mph 14 mph 39.4% 0.00 in 887 W/m2
13:58 82.3 °F 54.9 °F 29.84 in ESE 5.3 mph 12 mph 39% 0.00 in 883 W/m2
14:04 82.7 °F 54.9 °F 29.84 in ESE 6.5 mph 12 mph 38.6% 0.00 in 880 W/m2
14:09 82.9 °F 54.5 °F 29.84 in ESE 6.6 mph 14 mph 37.8% 0.00 in 876 W/m2
14:14 83.1 °F 53.7 °F 29.84 in ESE 7 mph 14 mph 36.4% 0.00 in 873 W/m2
14:19 83.5 °F 54.2 °F 29.84 in ESE 6.2 mph 14 mph 36.7% 0.00 in 867 W/m2
14:24 83.7 °F 54.2 °F 29.84 in SE 5.6 mph 13 mph 36.5% 0.00 in 864 W/m2
14:29 83.8 °F 54.8 °F 29.84 in ESE 5.1 mph 12 mph 37.2% 0.00 in 860 W/m2
14:34 83.8 °F 54.5 °F 29.84 in ESE 8 mph 16.1 mph 36.7% 0.00 in 852 W/m2
14:39 83.5 °F 54 °F 29.84 in ESE 8 mph 16.1 mph 36.3% 0.00 in 845 W/m2
14:44 83.4 °F 53.4 °F 29.84 in ESE 8.2 mph 16.1 mph 35.6% 0.00 in 839 W/m2
14:49 83.4 °F 53.7 °F 29.84 in ESE 5.7 mph 16 mph 36.2% 0.00 in 830 W/m2
14:54 83.6 °F 53.7 °F 29.84 in ESE 4.2 mph 12 mph 35.8% 0.00 in 822 W/m2
14:59 83.8 °F 54.4 °F 29.84 in ESE 3.4 mph 12 mph 36.5% 0.00 in 815 W/m2
15:04 84.1 °F 54.7 °F 29.84 in ESE 3.7 mph 12 mph 36.6% 0.00 in 804 W/m2
15:09 84.2 °F 54.3 °F 29.84 in ESE 4.7 mph 10.4 mph 35.9% 0.00 in 794 W/m2
15:14 84.3 °F 54.6 °F 29.84 in SE 3.1 mph 10 mph 36.3% 0.00 in 788 W/m2
15:19 84.5 °F 55.9 °F 29.83 in ESE 4.8 mph 11.5 mph 37.8% 0.00 in 776 W/m2
15:24 84.3 °F 53.6 °F 29.84 in SE 2.9 mph 12 mph 34.9% 0.00 in 771 W/m2
15:29 84.3 °F 55.2 °F 29.83 in SE 2.3 mph 7 mph 37% 0.00 in 764 W/m2
15:34 84.4 °F 54.4 °F 29.83 in SSE 2.6 mph 7 mph 35.9% 0.00 in 753 W/m2
15:39 84.5 °F 54.6 °F 29.83 in SSE 3 mph 7 mph 36.1% 0.00 in 744 W/m2
15:44 84.5 °F 55.2 °F 29.83 in South 1.7 mph 7 mph 36.7% 0.00 in 734 W/m2
15:49 84.6 °F 55.5 °F 29.83 in SSW 1.5 mph 6 mph 37% 0.00 in 725 W/m2
15:54 84.7 °F 55.2 °F 29.83 in ESE 1.5 mph 6 mph 36.6% 0.00 in 713 W/m2
15:59 84.9 °F 55.3 °F 29.83 in East 1.5 mph 5 mph 36.5% 0.00 in 704 W/m2
16:04 84.9 °F 55.5 °F 29.83 in ESE 1.8 mph 6 mph 36.7% 0.00 in 676 W/m2
16:09 84.9 °F 55.5 °F 29.83 in NE 1.3 mph 6 mph 36.7% 0.00 in 635 W/m2
16:14 85.1 °F 55.8 °F 29.83 in SW 2.3 mph 6 mph 36.9% 0.00 in 588 W/m2
16:19 85 °F 55.1 °F 29.83 in South 0.9 mph 6 mph 36% 0.00 in 547 W/m2
16:24 84.9 °F 55.5 °F 29.83 in WNW 1.4 mph 4 mph 36.7% 0.00 in 516 W/m2
16:29 84.9 °F 55 °F 29.83 in SW 1.4 mph 4 mph 36% 0.00 in 494 W/m2
16:34 84.8 °F 55.2 °F 29.83 in SSW 1.8 mph 5 mph 36.6% 0.00 in 494 W/m2
16:39 84.5 °F 54.8 °F 29.83 in SSE 2.6 mph 6 mph 36.2% 0.00 in 510 W/m2
16:44 84.2 °F 54.4 °F 29.83 in SE 2 mph 6 mph 36.1% 0.00 in 524 W/m2
16:49 83.9 °F 54.8 °F 29.83 in SE 2.4 mph 6 mph 37% 0.00 in 535 W/m2
16:54 83.5 °F 54.5 °F 29.83 in SSE 2.4 mph 6 mph 37% 0.00 in 547 W/m2
16:59 83.1 °F 55 °F 29.83 in SE 2.1 mph 6 mph 38.2% 0.00 in 547 W/m2
17:04 82.8 °F 54.6 °F 29.83 in SE 1.7 mph 6 mph 38.1% 0.00 in 542 W/m2
17:09 82.6 °F 55.1 °F 29.83 in SE 3.4 mph 9.2 mph 39% 0.00 in 531 W/m2
17:14 82.3 °F 55.2 °F 29.83 in SSE 2.2 mph 9 mph 39.4% 0.00 in 523 W/m2
17:19 82 °F 55.3 °F 29.83 in East 3.4 mph 9.2 mph 40% 0.00 in 509 W/m2
17:24 81.7 °F 55.4 °F 29.83 in East 3.4 mph 11.5 mph 40.6% 0.00 in 496 W/m2
17:29 81.3 °F 55.5 °F 29.83 in ESE 3.9 mph 12 mph 41.3% 0.00 in 479 W/m2
17:34 80.9 °F 56 °F 29.83 in ESE 3.8 mph 8.1 mph 42.5% 0.00 in 466 W/m2
17:39 80.4 °F 56.1 °F 29.83 in ESE 2 mph 8 mph 43.3% 0.00 in 450 W/m2
17:44 80 °F 55.9 °F 29.83 in SE 1.9 mph 7 mph 43.5% 0.00 in 421 W/m2
Saratoga, California, USA
Compliments of Weather Underground - 2 mb

WU-history PHP script courtesy of Juneau County Weather and modified for WU/TWC API use by Saratoga-weather.org

This script set is available on GitHub.

deformed-offering